KHTO

Details ICAO KHTO
Name East Hampton
Region United States
Timezone America/New_York (UTC-4.0)
Plans Departing 19
Arriving 28
Stats Elevation 56 ft / 17 m (AMSL)
Location 40.959739° -72.251595°
Runways 3
Magnetic Variation 13.773° W
Sunrise 2018-05-23 09:26:01 UTC / 2018-05-23 05:26:01 Local
Sunset 2018-05-24 00:08:24 UTC / 2018-05-23 20:08:24 Local
Advertisement - Login to hide

Runways

ID Width Length Bearing (true) Bearing (mag) Surface Threshold Offset Overrun Length
04 98 ft / 30 m 2,502 ft / 763 m 28.61° 42.38° Asphalt 0 ft / 0 m 0 ft / 0 m
10 98 ft / 30 m 4,245 ft / 1,294 m 88.91° 102.68° Asphalt 0 ft / 0 m 0 ft / 0 m
16 75 ft / 23 m 2,225 ft / 678 m 149.19° 162.96° Asphalt 56 ft / 17 m 0 ft / 0 m
22 98 ft / 30 m 2,502 ft / 763 m 208.61° 222.38° Asphalt 381 ft / 116 m 0 ft / 0 m
28 98 ft / 30 m 4,245 ft / 1,294 m 268.92° 282.69° Asphalt 0 ft / 0 m 0 ft / 0 m
34 75 ft / 23 m 2,225 ft / 678 m 329.20° 342.97° Asphalt 105 ft / 32 m 0 ft / 0 m

Map

Weather


0- 5 10 15 20 25 30 35+ Temperature / ° C

Clouds and Precipitation
Forecast for 2018-05-24 00:00 UTC. Updated 2 hours ago

Ground ~20,000 ft ~40,000 ft Winds

METAR

KHTO 240035Z AUTO 00000KT 10SM CLR 19/14 A2993 RMK AO2 T01890142

TAF

Not found

Frequencies

Unicom 122.70 MHz CTAF/UNICOM
Approach 132.25 MHz NEW YORK APP/DEP
Clearance 118.95 MHz NEW YORK CLNC DEL
Warning: Do not use this data for real-world aviation or navigation. No guarantee of current accuracy is given.